sensor_id;sensor_type;location;lat;lon;timestamp;noise_LAeq;noise_LA_min;noise_LA_max;noise_LA01;noise_LA95
74496;Laerm;62979;55.720;37.606;2023-02-23T00:01:24;46.46;37.87;59.55;;
74496;Laerm;62979;55.720;37.606;2023-02-23T00:03:54;41.74;37.63;48.07;;
74496;Laerm;62979;55.720;37.606;2023-02-23T00:06:23;43.17;37.21;55.35;;
74496;Laerm;62979;55.720;37.606;2023-02-23T00:08:50;46.03;37.67;58.71;;
74496;Laerm;62979;55.720;37.606;2023-02-23T00:11:19;48.20;36.02;72.97;;
74496;Laerm;62979;55.720;37.606;2023-02-23T00:13:49;41.34;36.90;48.34;;
74496;Laerm;62979;55.720;37.606;2023-02-23T00:16:19;44.03;36.96;54.77;;
74496;Laerm;62979;55.720;37.606;2023-02-23T00:18:50;41.89;37.85;52.30;;
74496;Laerm;62979;55.720;37.606;2023-02-23T00:21:21;44.49;38.15;55.30;;
74496;Laerm;62979;55.720;37.606;2023-02-23T00:23:51;46.86;37.96;57.16;;
74496;Laerm;62979;55.720;37.606;2023-02-23T00:26:20;42.82;37.55;49.10;;
74496;Laerm;62979;55.720;37.606;2023-02-23T00:28:52;43.21;37.37;50.21;;
74496;Laerm;62979;55.720;37.606;2023-02-23T00:31:20;42.61;38.89;50.65;;
74496;Laerm;62979;55.720;37.606;2023-02-23T00:33:50;44.63;37.61;62.28;;
74496;Laerm;62979;55.720;37.606;2023-02-23T00:36:21;44.87;38.53;56.79;;
74496;Laerm;62979;55.720;37.606;2023-02-23T00:38:52;42.74;37.67;50.32;;
74496;Laerm;62979;55.720;37.606;2023-02-23T00:41:19;44.52;38.18;53.17;;
74496;Laerm;62979;55.720;37.606;2023-02-23T00:43:51;43.31;38.09;50.51;;
74496;Laerm;62979;55.720;37.606;2023-02-23T00:46:21;46.35;38.13;57.11;;
74496;Laerm;62979;55.720;37.606;2023-02-23T00:48:50;42.67;38.07;48.73;;
74496;Laerm;62979;55.720;37.606;2023-02-23T00:51:18;41.88;37.46;56.47;;
74496;Laerm;62979;55.720;37.606;2023-02-23T00:53:45;46.23;37.61;58.17;;
74496;Laerm;62979;55.720;37.606;2023-02-23T00:56:14;41.28;36.72;46.19;;
74496;Laerm;62979;55.720;37.606;2023-02-23T00:58:42;42.99;37.10;55.10;;
74496;Laerm;62979;55.720;37.606;2023-02-23T01:01:12;45.34;37.62;62.36;;
74496;Laerm;62979;55.720;37.606;2023-02-23T01:03:41;42.11;37.28;47.31;;
74496;Laerm;62979;55.720;37.606;2023-02-23T01:06:11;41.66;37.54;46.62;;
74496;Laerm;62979;55.720;37.606;2023-02-23T01:08:42;42.51;38.19;48.44;;
74496;Laerm;62979;55.720;37.606;2023-02-23T01:11:12;43.02;38.47;60.47;;
74496;Laerm;62979;55.720;37.606;2023-02-23T01:13:42;42.22;36.83;56.41;;
74496;Laerm;62979;55.720;37.606;2023-02-23T01:16:16;44.10;36.76;68.59;;
74496;Laerm;62979;55.720;37.606;2023-02-23T01:18:44;41.68;36.81;47.04;;
74496;Laerm;62979;55.720;37.606;2023-02-23T01:21:17;46.50;39.02;59.85;;
74496;Laerm;62979;55.720;37.606;2023-02-23T01:23:45;44.05;38.61;63.27;;
74496;Laerm;62979;55.720;37.606;2023-02-23T01:26:16;41.74;37.23;48.11;;
74496;Laerm;62979;55.720;37.606;2023-02-23T01:28:46;41.99;37.10;46.23;;
74496;Laerm;62979;55.720;37.606;2023-02-23T01:31:14;42.61;38.10;58.23;;
74496;Laerm;62979;55.720;37.606;2023-02-23T01:33:41;41.96;38.28;48.18;;
74496;Laerm;62979;55.720;37.606;2023-02-23T01:36:08;44.74;37.43;57.15;;
74496;Laerm;62979;55.720;37.606;2023-02-23T01:38:36;42.00;37.12;56.82;;
74496;Laerm;62979;55.720;37.606;2023-02-23T01:41:03;42.42;38.22;50.50;;
74496;Laerm;62979;55.720;37.606;2023-02-23T01:43:32;42.15;37.36;50.67;;
74496;Laerm;62979;55.720;37.606;2023-02-23T01:45:59;42.95;38.19;48.58;;
74496;Laerm;62979;55.720;37.606;2023-02-23T01:48:32;47.47;37.05;62.05;;
74496;Laerm;62979;55.720;37.606;2023-02-23T01:51:05;46.38;38.60;61.18;;
74496;Laerm;62979;55.720;37.606;2023-02-23T01:53:39;45.78;38.08;58.10;;
74496;Laerm;62979;55.720;37.606;2023-02-23T01:56:14;44.91;37.30;57.68;;
74496;Laerm;62979;55.720;37.606;2023-02-23T01:58:46;42.15;37.30;54.69;;
74496;Laerm;62979;55.720;37.606;2023-02-23T02:01:17;42.99;37.89;53.01;;
74496;Laerm;62979;55.720;37.606;2023-02-23T02:03:50;41.93;37.10;48.08;;
74496;Laerm;62979;55.720;37.606;2023-02-23T02:06:23;42.59;38.32;49.13;;
74496;Laerm;62979;55.720;37.606;2023-02-23T02:08:58;42.43;37.50;54.09;;
74496;Laerm;62979;55.720;37.606;2023-02-23T02:11:32;43.05;37.95;50.87;;
74496;Laerm;62979;55.720;37.606;2023-02-23T02:14:05;42.12;36.33;51.59;;
74496;Laerm;62979;55.720;37.606;2023-02-23T02:17:12;43.05;37.54;55.59;;
74496;Laerm;62979;55.720;37.606;2023-02-23T02:20:31;49.17;38.65;64.02;;
74496;Laerm;62979;55.720;37.606;2023-02-23T02:26:43;42.94;38.69;58.89;;
74496;Laerm;62979;55.720;37.606;2023-02-23T02:39:00;42.37;37.82;47.48;;
74496;Laerm;62979;55.720;37.606;2023-02-23T02:41:39;43.31;39.43;56.96;;
74496;Laerm;62979;55.720;37.606;2023-02-23T02:44:16;42.63;38.66;53.16;;
74496;Laerm;62979;55.720;37.606;2023-02-23T02:46:48;46.07;38.77;66.11;;
74496;Laerm;62979;55.720;37.606;2023-02-23T02:49:25;43.12;38.49;63.21;;
74496;Laerm;62979;55.720;37.606;2023-02-23T02:52:02;43.21;38.15;47.33;;
74496;Laerm;62979;55.720;37.606;2023-02-23T02:54:38;48.94;38.58;62.46;;
74496;Laerm;62979;55.720;37.606;2023-02-23T02:57:08;44.93;39.09;57.99;;
74496;Laerm;62979;55.720;37.606;2023-02-23T02:59:44;46.39;38.87;57.33;;
74496;Laerm;62979;55.720;37.606;2023-02-23T03:02:32;49.96;38.91;65.48;;
74496;Laerm;62979;55.720;37.606;2023-02-23T03:05:21;44.17;39.08;54.67;;
74496;Laerm;62979;55.720;37.606;2023-02-23T03:08:17;44.05;38.47;64.55;;
74496;Laerm;62979;55.720;37.606;2023-02-23T03:11:07;43.41;38.98;48.21;;
74496;Laerm;62979;55.720;37.606;2023-02-23T03:14:10;45.84;38.61;56.03;;
74496;Laerm;62979;55.720;37.606;2023-02-23T03:17:07;50.55;39.51;61.37;;
74496;Laerm;62979;55.720;37.606;2023-02-23T03:20:12;54.40;40.79;66.31;;
74496;Laerm;62979;55.720;37.606;2023-02-23T03:23:09;45.46;40.15;58.08;;
74496;Laerm;62979;55.720;37.606;2023-02-23T03:26:07;46.39;39.89;55.93;;
74496;Laerm;62979;55.720;37.606;2023-02-23T03:29:03;47.24;40.06;62.60;;
74496;Laerm;62979;55.720;37.606;2023-02-23T03:32:01;46.23;39.54;57.68;;
74496;Laerm;62979;55.720;37.606;2023-02-23T03:34:53;46.41;40.34;61.68;;
74496;Laerm;62979;55.720;37.606;2023-02-23T03:37:44;51.51;41.52;61.68;;
74496;Laerm;62979;55.720;37.606;2023-02-23T03:40:35;52.16;40.50;66.27;;
74496;Laerm;62979;55.720;37.606;2023-02-23T03:43:26;49.47;39.25;59.95;;
74496;Laerm;62979;55.720;37.606;2023-02-23T03:46:17;49.98;40.74;62.49;;
74496;Laerm;62979;55.720;37.606;2023-02-23T03:49:04;48.56;40.46;61.72;;
74496;Laerm;62979;55.720;37.606;2023-02-23T03:51:56;48.35;40.75;67.89;;
74496;Laerm;62979;55.720;37.606;2023-02-23T03:54:48;48.51;42.07;59.32;;
74496;Laerm;62979;55.720;37.606;2023-02-23T03:57:38;48.92;40.24;65.35;;
74496;Laerm;62979;55.720;37.606;2023-02-23T04:00:30;50.24;41.59;63.90;;
74496;Laerm;62979;55.720;37.606;2023-02-23T04:03:18;53.20;42.67;65.66;;
74496;Laerm;62979;55.720;37.606;2023-02-23T04:06:10;52.80;41.88;66.31;;
74496;Laerm;62979;55.720;37.606;2023-02-23T04:09:00;47.62;41.45;56.78;;
74496;Laerm;62979;55.720;37.606;2023-02-23T04:11:51;48.27;40.54;60.19;;
74496;Laerm;62979;55.720;37.606;2023-02-23T04:14:44;49.25;42.62;64.03;;
74496;Laerm;62979;55.720;37.606;2023-02-23T04:17:16;50.51;42.43;61.94;;
74496;Laerm;62979;55.720;37.606;2023-02-23T04:19:49;50.48;41.94;69.83;;
74496;Laerm;62979;55.720;37.606;2023-02-23T04:22:17;50.79;42.51;63.01;;
74496;Laerm;62979;55.720;37.606;2023-02-23T04:24:44;51.49;42.77;63.88;;
74496;Laerm;62979;55.720;37.606;2023-02-23T04:27:11;49.06;42.31;62.82;;
74496;Laerm;62979;55.720;37.606;2023-02-23T04:29:38;51.73;44.46;62.04;;
74496;Laerm;62979;55.720;37.606;2023-02-23T04:32:06;51.91;44.62;63.34;;
74496;Laerm;62979;55.720;37.606;2023-02-23T04:34:34;48.90;43.74;67.60;;
74496;Laerm;62979;55.720;37.606;2023-02-23T04:37:01;48.86;43.35;59.41;;
74496;Laerm;62979;55.720;37.606;2023-02-23T04:39:28;51.29;43.92;63.87;;
74496;Laerm;62979;55.720;37.606;2023-02-23T04:41:55;50.89;43.96;63.88;;
74496;Laerm;62979;55.720;37.606;2023-02-23T04:44:22;48.21;43.44;62.15;;
74496;Laerm;62979;55.720;37.606;2023-02-23T04:46:48;47.34;42.64;60.94;;
74496;Laerm;62979;55.720;37.606;2023-02-23T04:49:15;50.48;43.31;68.63;;
74496;Laerm;62979;55.720;37.606;2023-02-23T04:51:44;53.89;43.78;66.72;;
74496;Laerm;62979;55.720;37.606;2023-02-23T04:54:10;52.37;43.17;62.22;;
74496;Laerm;62979;55.720;37.606;2023-02-23T04:56:37;48.81;44.29;57.67;;
74496;Laerm;62979;55.720;37.606;2023-02-23T04:59:04;52.88;43.98;62.86;;
74496;Laerm;62979;55.720;37.606;2023-02-23T05:01:31;48.37;43.37;56.30;;
74496;Laerm;62979;55.720;37.606;2023-02-23T05:03:58;51.97;43.67;63.02;;
74496;Laerm;62979;55.720;37.606;2023-02-23T05:06:25;51.98;43.71;66.32;;
74496;Laerm;62979;55.720;37.606;2023-02-23T05:08:54;49.70;43.22;59.77;;
74496;Laerm;62979;55.720;37.606;2023-02-23T05:11:21;49.12;43.14;62.07;;
74496;Laerm;62979;55.720;37.606;2023-02-23T05:13:47;49.16;42.97;59.27;;
74496;Laerm;62979;55.720;37.606;2023-02-23T05:16:14;50.16;42.72;64.13;;
74496;Laerm;62979;55.720;37.606;2023-02-23T05:18:41;48.62;42.45;65.89;;
74496;Laerm;62979;55.720;37.606;2023-02-23T05:21:10;53.04;45.52;66.86;;
74496;Laerm;62979;55.720;37.606;2023-02-23T05:23:37;50.43;43.33;73.32;;
74496;Laerm;62979;55.720;37.606;2023-02-23T05:26:10;51.47;43.13;65.93;;
74496;Laerm;62979;55.720;37.606;2023-02-23T05:28:40;55.41;44.70;69.59;;
74496;Laerm;62979;55.720;37.606;2023-02-23T05:31:08;53.24;45.60;69.81;;
74496;Laerm;62979;55.720;37.606;2023-02-23T05:33:37;53.29;45.93;63.63;;
74496;Laerm;62979;55.720;37.606;2023-02-23T05:36:09;51.85;45.95;70.47;;
74496;Laerm;62979;55.720;37.606;2023-02-23T05:38:36;53.63;45.96;71.25;;
74496;Laerm;62979;55.720;37.606;2023-02-23T05:41:06;53.97;46.77;66.99;;
74496;Laerm;62979;55.720;37.606;2023-02-23T05:43:34;54.75;47.30;68.79;;
74496;Laerm;62979;55.720;37.606;2023-02-23T05:46:05;52.84;45.95;63.24;;
74496;Laerm;62979;55.720;37.606;2023-02-23T05:48:32;54.20;45.24;65.54;;
74496;Laerm;62979;55.720;37.606;2023-02-23T05:51:01;52.44;45.65;59.81;;
74496;Laerm;62979;55.720;37.606;2023-02-23T05:53:28;53.52;45.83;69.98;;
74496;Laerm;62979;55.720;37.606;2023-02-23T05:55:55;54.77;44.63;72.67;;
74496;Laerm;62979;55.720;37.606;2023-02-23T05:58:23;54.22;46.12;71.80;;
74496;Laerm;62979;55.720;37.606;2023-02-23T06:00:51;51.65;44.89;65.21;;
74496;Laerm;62979;55.720;37.606;2023-02-23T06:03:18;52.47;45.28;68.96;;
74496;Laerm;62979;55.720;37.606;2023-02-23T06:05:49;53.43;47.19;64.46;;
74496;Laerm;62979;55.720;37.606;2023-02-23T06:08:16;52.57;45.39;62.71;;
74496;Laerm;62979;55.720;37.606;2023-02-23T06:10:43;51.06;45.35;60.56;;
74496;Laerm;62979;55.720;37.606;2023-02-23T06:13:11;54.91;46.18;67.23;;
74496;Laerm;62979;55.720;37.606;2023-02-23T06:15:39;54.27;46.55;63.18;;
74496;Laerm;62979;55.720;37.606;2023-02-23T06:18:07;52.51;46.20;72.34;;
74496;Laerm;62979;55.720;37.606;2023-02-23T06:20:35;55.20;46.60;67.35;;
74496;Laerm;62979;55.720;37.606;2023-02-23T06:23:02;50.95;45.40;63.64;;
74496;Laerm;62979;55.720;37.606;2023-02-23T06:25:30;52.69;45.39;64.88;;
74496;Laerm;62979;55.720;37.606;2023-02-23T06:27:58;53.71;45.28;64.85;;
74496;Laerm;62979;55.720;37.606;2023-02-23T06:30:25;51.40;44.79;60.76;;
74496;Laerm;62979;55.720;37.606;2023-02-23T06:32:53;53.07;45.11;62.30;;
74496;Laerm;62979;55.720;37.606;2023-02-23T06:35:20;55.52;46.33;69.10;;
74496;Laerm;62979;55.720;37.606;2023-02-23T06:37:47;55.28;45.67;66.83;;
74496;Laerm;62979;55.720;37.606;2023-02-23T06:40:14;56.05;46.95;71.37;;
74496;Laerm;62979;55.720;37.606;2023-02-23T06:42:41;53.05;45.54;66.81;;
74496;Laerm;62979;55.720;37.606;2023-02-23T06:45:10;53.56;46.67;62.25;;
74496;Laerm;62979;55.720;37.606;2023-02-23T06:47:38;50.51;44.79;57.39;;
74496;Laerm;62979;55.720;37.606;2023-02-23T06:50:08;52.81;46.04;65.77;;
74496;Laerm;62979;55.720;37.606;2023-02-23T06:52:36;53.38;45.97;65.63;;
74496;Laerm;62979;55.720;37.606;2023-02-23T06:55:04;52.06;44.75;61.52;;
74496;Laerm;62979;55.720;37.606;2023-02-23T06:57:32;53.15;44.98;63.89;;
74496;Laerm;62979;55.720;37.606;2023-02-23T06:59:59;55.42;47.28;64.99;;
74496;Laerm;62979;55.720;37.606;2023-02-23T07:02:27;53.30;43.97;68.26;;
74496;Laerm;62979;55.720;37.606;2023-02-23T07:04:54;51.88;44.60;63.44;;
74496;Laerm;62979;55.720;37.606;2023-02-23T07:07:22;54.00;47.21;64.54;;
74496;Laerm;62979;55.720;37.606;2023-02-23T07:09:49;54.71;45.11;76.51;;
74496;Laerm;62979;55.720;37.606;2023-02-23T07:12:16;52.26;44.88;61.95;;
74496;Laerm;62979;55.720;37.606;2023-02-23T07:14:43;51.56;45.63;63.98;;
74496;Laerm;62979;55.720;37.606;2023-02-23T07:17:10;53.63;45.40;68.08;;
74496;Laerm;62979;55.720;37.606;2023-02-23T07:19:37;53.51;44.64;67.13;;
74496;Laerm;62979;55.720;37.606;2023-02-23T07:22:03;54.23;45.78;66.11;;
74496;Laerm;62979;55.720;37.606;2023-02-23T07:24:32;54.30;45.67;63.45;;
74496;Laerm;62979;55.720;37.606;2023-02-23T07:26:58;54.18;45.88;64.64;;
74496;Laerm;62979;55.720;37.606;2023-02-23T07:29:25;51.07;44.11;59.70;;
74496;Laerm;62979;55.720;37.606;2023-02-23T07:31:54;51.60;45.50;60.05;;
74496;Laerm;62979;55.720;37.606;2023-02-23T07:34:21;55.32;46.00;64.84;;
74496;Laerm;62979;55.720;37.606;2023-02-23T07:36:48;51.26;45.51;67.82;;
74496;Laerm;62979;55.720;37.606;2023-02-23T07:39:14;53.33;46.35;66.60;;
74496;Laerm;62979;55.720;37.606;2023-02-23T07:41:43;53.38;47.00;62.62;;
74496;Laerm;62979;55.720;37.606;2023-02-23T07:44:11;55.57;47.01;66.00;;
74496;Laerm;62979;55.720;37.606;2023-02-23T07:46:38;53.10;45.99;67.19;;
74496;Laerm;62979;55.720;37.606;2023-02-23T07:49:05;55.61;46.32;64.68;;
74496;Laerm;62979;55.720;37.606;2023-02-23T07:51:32;55.78;48.27;65.64;;
74496;Laerm;62979;55.720;37.606;2023-02-23T07:54:02;55.78;47.34;68.74;;
74496;Laerm;62979;55.720;37.606;2023-02-23T07:56:30;52.76;45.02;64.19;;
74496;Laerm;62979;55.720;37.606;2023-02-23T07:58:58;54.10;45.81;66.01;;
74496;Laerm;62979;55.720;37.606;2023-02-23T08:01:25;56.81;44.27;71.84;;
74496;Laerm;62979;55.720;37.606;2023-02-23T08:03:51;55.53;45.02;63.37;;
74496;Laerm;62979;55.720;37.606;2023-02-23T08:06:19;54.36;45.87;66.91;;
74496;Laerm;62979;55.720;37.606;2023-02-23T08:08:46;49.99;44.89;58.75;;
74496;Laerm;62979;55.720;37.606;2023-02-23T08:11:13;56.20;46.64;72.56;;
74496;Laerm;62979;55.720;37.606;2023-02-23T08:13:40;55.82;46.21;67.06;;
74496;Laerm;62979;55.720;37.606;2023-02-23T08:16:08;53.18;45.24;65.76;;
74496;Laerm;62979;55.720;37.606;2023-02-23T08:18:37;57.31;46.13;71.79;;
74496;Laerm;62979;55.720;37.606;2023-02-23T08:21:04;54.63;46.37;67.57;;
74496;Laerm;62979;55.720;37.606;2023-02-23T08:23:33;55.93;47.87;65.62;;
74496;Laerm;62979;55.720;37.606;2023-02-23T08:26:01;52.94;45.36;65.93;;
74496;Laerm;62979;55.720;37.606;2023-02-23T08:28:29;51.91;46.47;66.07;;
74496;Laerm;62979;55.720;37.606;2023-02-23T08:30:56;55.05;45.51;65.14;;
74496;Laerm;62979;55.720;37.606;2023-02-23T08:33:25;52.61;44.32;62.35;;
74496;Laerm;62979;55.720;37.606;2023-02-23T08:35:52;52.33;45.51;64.01;;
74496;Laerm;62979;55.720;37.606;2023-02-23T08:38:19;58.80;44.57;73.92;;
74496;Laerm;62979;55.720;37.606;2023-02-23T08:40:46;53.88;45.25;67.38;;
74496;Laerm;62979;55.720;37.606;2023-02-23T08:43:13;54.73;47.95;75.76;;
74496;Laerm;62979;55.720;37.606;2023-02-23T08:45:40;54.41;47.52;63.50;;
74496;Laerm;62979;55.720;37.606;2023-02-23T08:48:07;55.22;46.12;66.20;;
74496;Laerm;62979;55.720;37.606;2023-02-23T08:50:35;49.78;43.27;58.18;;
74496;Laerm;62979;55.720;37.606;2023-02-23T08:53:02;53.73;45.65;64.17;;
74496;Laerm;62979;55.720;37.606;2023-02-23T08:55:29;52.59;44.92;64.68;;
74496;Laerm;62979;55.720;37.606;2023-02-23T08:57:57;53.50;44.00;73.21;;
74496;Laerm;62979;55.720;37.606;2023-02-23T09:00:24;52.68;44.30;65.37;;
74496;Laerm;62979;55.720;37.606;2023-02-23T09:02:51;53.00;43.20;65.19;;
74496;Laerm;62979;55.720;37.606;2023-02-23T09:05:18;51.20;43.94;61.79;;
74496;Laerm;62979;55.720;37.606;2023-02-23T09:07:46;53.69;45.01;63.10;;
74496;Laerm;62979;55.720;37.606;2023-02-23T09:10:16;56.00;46.69;67.17;;
74496;Laerm;62979;55.720;37.606;2023-02-23T09:12:44;54.93;46.64;69.77;;
74496;Laerm;62979;55.720;37.606;2023-02-23T09:15:11;57.68;44.25;75.06;;
74496;Laerm;62979;55.720;37.606;2023-02-23T09:17:38;54.69;44.86;67.77;;
74496;Laerm;62979;55.720;37.606;2023-02-23T09:20:09;55.76;46.82;68.98;;
74496;Laerm;62979;55.720;37.606;2023-02-23T09:22:38;53.61;45.99;62.93;;
74496;Laerm;62979;55.720;37.606;2023-02-23T09:25:08;52.45;45.71;67.70;;
74496;Laerm;62979;55.720;37.606;2023-02-23T09:27:37;56.26;45.67;67.59;;
74496;Laerm;62979;55.720;37.606;2023-02-23T09:30:05;52.45;44.75;71.33;;
74496;Laerm;62979;55.720;37.606;2023-02-23T09:32:32;55.63;46.49;65.37;;
74496;Laerm;62979;55.720;37.606;2023-02-23T09:34:59;55.54;45.98;66.72;;
74496;Laerm;62979;55.720;37.606;2023-02-23T09:37:26;53.70;45.76;69.62;;
74496;Laerm;62979;55.720;37.606;2023-02-23T09:39:52;51.52;45.53;65.78;;
74496;Laerm;62979;55.720;37.606;2023-02-23T09:42:36;54.76;45.42;69.78;;
74496;Laerm;62979;55.720;37.606;2023-02-23T09:45:27;51.87;44.23;62.59;;
74496;Laerm;62979;55.720;37.606;2023-02-23T09:48:11;53.55;45.92;63.69;;
74496;Laerm;62979;55.720;37.606;2023-02-23T09:50:43;54.50;45.52;66.54;;
74496;Laerm;62979;55.720;37.606;2023-02-23T09:53:26;53.30;46.49;61.69;;
74496;Laerm;62979;55.720;37.606;2023-02-23T09:55:57;54.77;47.59;66.14;;
74496;Laerm;62979;55.720;37.606;2023-02-23T09:58:28;55.89;46.64;75.76;;
74496;Laerm;62979;55.720;37.606;2023-02-23T10:01:20;51.96;44.99;61.85;;
74496;Laerm;62979;55.720;37.606;2023-02-23T10:04:00;56.81;47.45;67.85;;
74496;Laerm;62979;55.720;37.606;2023-02-23T10:06:30;54.22;46.71;66.99;;
74496;Laerm;62979;55.720;37.606;2023-02-23T10:09:11;54.18;44.28;65.47;;
74496;Laerm;62979;55.720;37.606;2023-02-23T10:11:47;53.09;44.78;61.92;;
74496;Laerm;62979;55.720;37.606;2023-02-23T10:14:41;59.18;46.77;74.69;;
74496;Laerm;62979;55.720;37.606;2023-02-23T10:17:28;59.73;48.25;71.81;;
74496;Laerm;62979;55.720;37.606;2023-02-23T10:20:12;57.70;50.98;68.85;;
74496;Laerm;62979;55.720;37.606;2023-02-23T10:22:44;59.16;46.26;79.09;;
74496;Laerm;62979;55.720;37.606;2023-02-23T10:25:20;51.80;44.32;62.96;;
74496;Laerm;62979;55.720;37.606;2023-02-23T10:27:50;52.99;44.01;61.96;;
74496;Laerm;62979;55.720;37.606;2023-02-23T10:30:24;54.07;44.02;66.24;;
74496;Laerm;62979;55.720;37.606;2023-02-23T10:33:03;55.83;45.55;75.30;;
74496;Laerm;62979;55.720;37.606;2023-02-23T10:35:33;53.96;44.90;67.16;;
74496;Laerm;62979;55.720;37.606;2023-02-23T10:38:01;52.29;44.20;66.56;;
74496;Laerm;62979;55.720;37.606;2023-02-23T10:40:30;54.91;45.92;64.16;;
74496;Laerm;62979;55.720;37.606;2023-02-23T10:43:00;54.95;46.11;79.18;;
74496;Laerm;62979;55.720;37.606;2023-02-23T10:45:34;52.75;43.14;67.87;;
74496;Laerm;62979;55.720;37.606;2023-02-23T10:48:08;54.71;44.76;68.13;;
74496;Laerm;62979;55.720;37.606;2023-02-23T10:50:38;54.52;47.67;69.24;;
74496;Laerm;62979;55.720;37.606;2023-02-23T10:53:15;53.92;43.96;70.44;;
74496;Laerm;62979;55.720;37.606;2023-02-23T10:55:44;53.28;44.99;64.47;;
74496;Laerm;62979;55.720;37.606;2023-02-23T10:58:15;54.57;44.77;69.99;;
74496;Laerm;62979;55.720;37.606;2023-02-23T11:00:56;50.56;44.91;59.05;;
74496;Laerm;62979;55.720;37.606;2023-02-23T11:03:32;53.21;45.89;61.56;;
74496;Laerm;62979;55.720;37.606;2023-02-23T11:05:59;56.09;44.73;70.78;;
74496;Laerm;62979;55.720;37.606;2023-02-23T11:08:30;54.43;45.99;71.10;;
74496;Laerm;62979;55.720;37.606;2023-02-23T11:11:05;58.01;48.07;79.00;;
74496;Laerm;62979;55.720;37.606;2023-02-23T11:13:38;54.02;43.40;72.73;;
74496;Laerm;62979;55.720;37.606;2023-02-23T11:16:11;54.20;46.93;70.41;;
74496;Laerm;62979;55.720;37.606;2023-02-23T11:18:40;54.19;46.53;71.34;;
74496;Laerm;62979;55.720;37.606;2023-02-23T11:21:12;53.83;47.88;71.42;;
74496;Laerm;62979;55.720;37.606;2023-02-23T11:23:40;57.52;48.33;75.27;;
74496;Laerm;62979;55.720;37.606;2023-02-23T11:26:34;54.29;46.58;75.68;;
74496;Laerm;62979;55.720;37.606;2023-02-23T11:29:14;55.35;46.26;78.18;;
74496;Laerm;62979;55.720;37.606;2023-02-23T11:31:49;56.17;46.93;75.74;;
74496;Laerm;62979;55.720;37.606;2023-02-23T11:34:28;52.78;43.62;63.76;;
74496;Laerm;62979;55.720;37.606;2023-02-23T11:37:03;54.72;45.65;70.69;;
74496;Laerm;62979;55.720;37.606;2023-02-23T11:39:31;54.36;47.55;72.88;;
74496;Laerm;62979;55.720;37.606;2023-02-23T11:42:15;56.15;46.58;77.76;;
74496;Laerm;62979;55.720;37.606;2023-02-23T11:44:51;53.85;45.44;67.69;;
74496;Laerm;62979;55.720;37.606;2023-02-23T11:47:22;62.29;47.24;75.55;;
74496;Laerm;62979;55.720;37.606;2023-02-23T11:49:51;57.40;46.25;83.08;;
74496;Laerm;62979;55.720;37.606;2023-02-23T11:52:23;55.71;46.25;72.76;;
74496;Laerm;62979;55.720;37.606;2023-02-23T11:54:55;54.02;44.69;74.04;;
74496;Laerm;62979;55.720;37.606;2023-02-23T11:57:27;54.21;45.34;66.93;;
74496;Laerm;62979;55.720;37.606;2023-02-23T11:59:59;54.65;45.50;72.16;;
74496;Laerm;62979;55.720;37.606;2023-02-23T12:02:30;54.61;47.74;73.56;;
74496;Laerm;62979;55.720;37.606;2023-02-23T12:05:06;63.38;47.17;87.98;;
74496;Laerm;62979;55.720;37.606;2023-02-23T12:07:38;54.19;46.72;69.56;;
74496;Laerm;62979;55.720;37.606;2023-02-23T12:10:17;55.23;45.17;65.37;;
74496;Laerm;62979;55.720;37.606;2023-02-23T12:13:02;56.12;46.96;77.53;;
74496;Laerm;62979;55.720;37.606;2023-02-23T12:15:43;55.11;45.79;66.30;;
74496;Laerm;62979;55.720;37.606;2023-02-23T12:18:35;53.58;46.26;69.00;;
74496;Laerm;62979;55.720;37.606;2023-02-23T12:21:22;51.50;44.97;62.83;;
74496;Laerm;62979;55.720;37.606;2023-02-23T12:24:05;56.77;47.50;75.76;;
74496;Laerm;62979;55.720;37.606;2023-02-23T12:26:45;52.87;45.37;60.93;;
74496;Laerm;62979;55.720;37.606;2023-02-23T12:29:22;52.44;45.46;63.88;;
74496;Laerm;62979;55.720;37.606;2023-02-23T12:31:58;52.95;45.86;62.60;;
74496;Laerm;62979;55.720;37.606;2023-02-23T12:34:35;54.21;48.10;66.80;;
74496;Laerm;62979;55.720;37.606;2023-02-23T12:37:24;52.90;43.48;66.92;;
74496;Laerm;62979;55.720;37.606;2023-02-23T12:39:57;52.94;46.06;64.90;;
74496;Laerm;62979;55.720;37.606;2023-02-23T12:42:39;54.25;47.88;68.16;;
74496;Laerm;62979;55.720;37.606;2023-02-23T12:45:19;54.41;47.09;71.74;;
74496;Laerm;62979;55.720;37.606;2023-02-23T12:47:52;53.18;44.36;67.28;;
74496;Laerm;62979;55.720;37.606;2023-02-23T12:50:28;54.16;47.78;68.86;;
74496;Laerm;62979;55.720;37.606;2023-02-23T12:53:16;55.56;47.79;64.65;;
74496;Laerm;62979;55.720;37.606;2023-02-23T12:56:02;54.58;46.35;65.85;;
74496;Laerm;62979;55.720;37.606;2023-02-23T12:58:41;53.63;43.68;69.43;;
74496;Laerm;62979;55.720;37.606;2023-02-23T13:01:15;54.07;47.14;69.97;;
74496;Laerm;62979;55.720;37.606;2023-02-23T13:04:09;56.27;46.54;77.27;;
74496;Laerm;62979;55.720;37.606;2023-02-23T13:06:51;59.52;46.00;78.62;;
74496;Laerm;62979;55.720;37.606;2023-02-23T13:09:45;54.52;47.71;69.24;;
74496;Laerm;62979;55.720;37.606;2023-02-23T13:12:32;55.74;46.18;73.72;;
74496;Laerm;62979;55.720;37.606;2023-02-23T13:15:21;55.52;49.51;71.65;;
74496;Laerm;62979;55.720;37.606;2023-02-23T13:17:59;58.08;48.24;72.98;;
74496;Laerm;62979;55.720;37.606;2023-02-23T13:20:35;58.93;51.52;68.78;;
74496;Laerm;62979;55.720;37.606;2023-02-23T13:23:20;59.27;47.31;72.41;;
74496;Laerm;62979;55.720;37.606;2023-02-23T13:25:57;60.80;49.88;72.48;;
74496;Laerm;62979;55.720;37.606;2023-02-23T13:28:41;61.94;48.70;72.16;;
74496;Laerm;62979;55.720;37.606;2023-02-23T13:31:22;52.66;45.05;69.21;;
74496;Laerm;62979;55.720;37.606;2023-02-23T13:33:52;57.18;45.89;80.10;;
74496;Laerm;62979;55.720;37.606;2023-02-23T13:36:21;59.79;48.59;76.95;;
74496;Laerm;62979;55.720;37.606;2023-02-23T13:39:27;55.35;47.28;67.08;;
74496;Laerm;62979;55.720;37.606;2023-02-23T13:42:17;56.45;46.82;80.10;;
74496;Laerm;62979;55.720;37.606;2023-02-23T13:44:54;62.36;47.60;80.14;;
74496;Laerm;62979;55.720;37.606;2023-02-23T13:47:38;58.69;47.52;74.10;;
74496;Laerm;62979;55.720;37.606;2023-02-23T13:50:20;56.92;48.66;74.72;;
74496;Laerm;62979;55.720;37.606;2023-02-23T13:52:53;56.54;49.25;80.40;;
74496;Laerm;62979;55.720;37.606;2023-02-23T13:55:44;56.06;47.39;76.99;;
74496;Laerm;62979;55.720;37.606;2023-02-23T13:58:25;56.67;47.46;71.24;;
74496;Laerm;62979;55.720;37.606;2023-02-23T14:01:07;57.42;48.35;71.53;;
74496;Laerm;62979;55.720;37.606;2023-02-23T14:03:46;62.17;48.01;74.60;;
74496;Laerm;62979;55.720;37.606;2023-02-23T14:06:20;51.21;46.09;61.15;;
74496;Laerm;62979;55.720;37.606;2023-02-23T14:08:56;55.68;46.71;65.28;;
74496;Laerm;62979;55.720;37.606;2023-02-23T14:11:46;54.43;46.36;74.62;;
74496;Laerm;62979;55.720;37.606;2023-02-23T14:14:39;54.92;45.04;66.43;;
74496;Laerm;62979;55.720;37.606;2023-02-23T14:17:41;52.25;45.40;68.10;;
74496;Laerm;62979;55.720;37.606;2023-02-23T14:20:35;53.26;44.44;62.44;;
74496;Laerm;62979;55.720;37.606;2023-02-23T14:26:38;54.45;45.71;65.67;;